sensor_id;sensor_type;location;lat;lon;timestamp;temperature;humidity
65559;DHT22;52203;51.998;5.140;2022-10-22T00:01:03;7.33;118.99
65559;DHT22;52203;51.998;5.140;2022-10-22T00:03:29;7.30;118.99
65559;DHT22;52203;51.998;5.140;2022-10-22T00:05:55;7.32;118.99
65559;DHT22;52203;51.998;5.140;2022-10-22T00:08:21;7.38;118.99
65559;DHT22;52203;51.998;5.140;2022-10-22T00:10:46;7.41;118.99
65559;DHT22;52203;51.998;5.140;2022-10-22T00:13:12;7.41;118.99
65559;DHT22;52203;51.998;5.140;2022-10-22T00:15:38;7.43;118.99
65559;DHT22;52203;51.998;5.140;2022-10-22T00:18:04;7.63;118.99
65559;DHT22;52203;51.998;5.140;2022-10-22T00:20:29;7.58;118.99
65559;DHT22;52203;51.998;5.140;2022-10-22T00:22:55;7.61;118.99
65559;DHT22;52203;51.998;5.140;2022-10-22T00:25:20;7.72;118.99
65559;DHT22;52203;51.998;5.140;2022-10-22T00:27:46;7.68;118.99
65559;DHT22;52203;51.998;5.140;2022-10-22T00:30:11;7.67;118.99
65559;DHT22;52203;51.998;5.140;2022-10-22T00:32:37;7.72;118.99
65559;DHT22;52203;51.998;5.140;2022-10-22T00:35:03;7.73;118.99
65559;DHT22;52203;51.998;5.140;2022-10-22T00:37:29;7.72;118.99
65559;DHT22;52203;51.998;5.140;2022-10-22T00:39:55;7.70;118.99
65559;DHT22;52203;51.998;5.140;2022-10-22T00:42:24;7.72;118.99
65559;DHT22;52203;51.998;5.140;2022-10-22T00:45:21;7.72;118.99
65559;DHT22;52203;51.998;5.140;2022-10-22T00:53:07;7.75;118.99
65559;DHT22;52203;51.998;5.140;2022-10-22T00:55:34;7.73;118.99
65559;DHT22;52203;51.998;5.140;2022-10-22T00:58:00;7.75;118.99
65559;DHT22;52203;51.998;5.140;2022-10-22T01:00:26;7.73;118.99
65559;DHT22;52203;51.998;5.140;2022-10-22T01:02:53;7.70;118.99
65559;DHT22;52203;51.998;5.140;2022-10-22T01:05:19;7.73;118.99
65559;DHT22;52203;51.998;5.140;2022-10-22T01:07:51;7.70;118.99
65559;DHT22;52203;51.998;5.140;2022-10-22T01:21:07;7.68;118.99
65559;DHT22;52203;51.998;5.140;2022-10-22T01:26:53;7.50;118.99
65559;DHT22;52203;51.998;5.140;2022-10-22T01:29:25;7.67;118.99
65559;DHT22;52203;51.998;5.140;2022-10-22T01:32:03;7.67;118.99
65559;DHT22;52203;51.998;5.140;2022-10-22T01:34:30;7.56;118.99
65559;DHT22;52203;51.998;5.140;2022-10-22T01:36:58;7.58;118.99
65559;DHT22;52203;51.998;5.140;2022-10-22T01:39:24;7.62;118.99
65559;DHT22;52203;51.998;5.140;2022-10-22T01:41:54;7.55;118.99
65559;DHT22;52203;51.998;5.140;2022-10-22T01:44:26;7.50;118.99
65559;DHT22;52203;51.998;5.140;2022-10-22T01:47:01;7.42;118.99
65559;DHT22;52203;51.998;5.140;2022-10-22T01:49:52;7.37;118.99
65559;DHT22;52203;51.998;5.140;2022-10-22T02:00:43;7.35;118.99
65559;DHT22;52203;51.998;5.140;2022-10-22T02:03:17;7.30;118.99
65559;DHT22;52203;51.998;5.140;2022-10-22T02:05:48;7.30;118.99
65559;DHT22;52203;51.998;5.140;2022-10-22T02:08:28;7.30;118.99
65559;DHT22;52203;51.998;5.140;2022-10-22T02:10:56;7.30;118.99
65559;DHT22;52203;51.998;5.140;2022-10-22T02:13:47;7.35;118.99
65559;DHT22;52203;51.998;5.140;2022-10-22T02:16:19;7.23;118.99
65559;DHT22;52203;51.998;5.140;2022-10-22T02:18:49;7.30;118.99
65559;DHT22;52203;51.998;5.140;2022-10-22T02:21:16;7.19;118.99
65559;DHT22;52203;51.998;5.140;2022-10-22T02:23:42;7.29;118.99
65559;DHT22;52203;51.998;5.140;2022-10-22T02:26:32;7.14;118.99
65559;DHT22;52203;51.998;5.140;2022-10-22T02:29:08;7.16;118.99
65559;DHT22;52203;51.998;5.140;2022-10-22T02:31:37;7.17;118.99
65559;DHT22;52203;51.998;5.140;2022-10-22T02:34:09;7.11;118.99
65559;DHT22;52203;51.998;5.140;2022-10-22T02:36:37;7.14;118.99
65559;DHT22;52203;51.998;5.140;2022-10-22T02:39:04;7.08;118.99
65559;DHT22;52203;51.998;5.140;2022-10-22T02:41:30;7.13;118.99
65559;DHT22;52203;51.998;5.140;2022-10-22T02:43:56;7.15;118.99
65559;DHT22;52203;51.998;5.140;2022-10-22T02:46:22;7.13;118.99
65559;DHT22;52203;51.998;5.140;2022-10-22T02:48:48;7.19;118.99
65559;DHT22;52203;51.998;5.140;2022-10-22T02:51:13;7.19;118.99
65559;DHT22;52203;51.998;5.140;2022-10-22T02:53:39;7.12;118.99
65559;DHT22;52203;51.998;5.140;2022-10-22T02:56:06;7.10;118.99
65559;DHT22;52203;51.998;5.140;2022-10-22T02:58:32;7.07;118.99
65559;DHT22;52203;51.998;5.140;2022-10-22T03:00:57;6.98;118.99
65559;DHT22;52203;51.998;5.140;2022-10-22T03:03:23;6.97;118.99
65559;DHT22;52203;51.998;5.140;2022-10-22T03:05:51;6.94;118.99
65559;DHT22;52203;51.998;5.140;2022-10-22T03:08:17;6.95;118.99
65559;DHT22;52203;51.998;5.140;2022-10-22T03:10:42;6.97;118.99
65559;DHT22;52203;51.998;5.140;2022-10-22T03:13:08;7.00;118.99
65559;DHT22;52203;51.998;5.140;2022-10-22T03:15:33;7.02;118.99
65559;DHT22;52203;51.998;5.140;2022-10-22T03:17:59;7.02;118.99
65559;DHT22;52203;51.998;5.140;2022-10-22T03:20:25;6.89;118.99
65559;DHT22;52203;51.998;5.140;2022-10-22T03:22:51;6.95;118.99
65559;DHT22;52203;51.998;5.140;2022-10-22T03:25:19;6.87;118.99
65559;DHT22;52203;51.998;5.140;2022-10-22T03:27:46;6.85;118.99
65559;DHT22;52203;51.998;5.140;2022-10-22T03:30:13;6.81;118.99
65559;DHT22;52203;51.998;5.140;2022-10-22T03:32:39;6.82;118.99
65559;DHT22;52203;51.998;5.140;2022-10-22T03:35:05;6.78;118.99
65559;DHT22;52203;51.998;5.140;2022-10-22T03:37:31;6.93;118.99
65559;DHT22;52203;51.998;5.140;2022-10-22T03:39:57;6.81;118.99
65559;DHT22;52203;51.998;5.140;2022-10-22T03:42:23;6.76;118.99
65559;DHT22;52203;51.998;5.140;2022-10-22T03:44:49;6.81;118.99
65559;DHT22;52203;51.998;5.140;2022-10-22T03:47:15;6.85;118.99
65559;DHT22;52203;51.998;5.140;2022-10-22T03:49:40;6.86;118.99
65559;DHT22;52203;51.998;5.140;2022-10-22T03:52:11;6.84;118.99
65559;DHT22;52203;51.998;5.140;2022-10-22T03:54:37;6.87;118.99
65559;DHT22;52203;51.998;5.140;2022-10-22T03:57:04;6.86;118.99
65559;DHT22;52203;51.998;5.140;2022-10-22T03:59:42;6.84;118.99
65559;DHT22;52203;51.998;5.140;2022-10-22T04:02:09;6.80;118.99
65559;DHT22;52203;51.998;5.140;2022-10-22T04:04:35;6.79;118.99
65559;DHT22;52203;51.998;5.140;2022-10-22T04:07:00;6.75;118.99
65559;DHT22;52203;51.998;5.140;2022-10-22T04:09:26;6.71;118.99
65559;DHT22;52203;51.998;5.140;2022-10-22T04:11:51;6.68;118.99
65559;DHT22;52203;51.998;5.140;2022-10-22T04:14:17;6.72;118.99
65559;DHT22;52203;51.998;5.140;2022-10-22T04:16:43;6.70;118.99
65559;DHT22;52203;51.998;5.140;2022-10-22T04:19:08;6.67;118.99
65559;DHT22;52203;51.998;5.140;2022-10-22T04:21:34;6.70;118.99
65559;DHT22;52203;51.998;5.140;2022-10-22T04:24:00;6.76;118.99
65559;DHT22;52203;51.998;5.140;2022-10-22T04:26:26;6.68;118.99
65559;DHT22;52203;51.998;5.140;2022-10-22T04:28:52;6.70;118.99
65559;DHT22;52203;51.998;5.140;2022-10-22T04:31:23;6.65;118.99
65559;DHT22;52203;51.998;5.140;2022-10-22T04:33:54;6.74;118.99
65559;DHT22;52203;51.998;5.140;2022-10-22T04:36:20;6.75;118.99
65559;DHT22;52203;51.998;5.140;2022-10-22T04:38:46;6.82;118.99
65559;DHT22;52203;51.998;5.140;2022-10-22T04:41:25;6.83;118.99
65559;DHT22;52203;51.998;5.140;2022-10-22T04:43:53;6.86;118.99
65559;DHT22;52203;51.998;5.140;2022-10-22T04:46:18;6.80;118.99
65559;DHT22;52203;51.998;5.140;2022-10-22T04:48:45;6.86;118.99
65559;DHT22;52203;51.998;5.140;2022-10-22T04:51:14;6.80;118.99
65559;DHT22;52203;51.998;5.140;2022-10-22T04:53:40;6.80;118.99
65559;DHT22;52203;51.998;5.140;2022-10-22T04:58:35;6.88;118.99
65559;DHT22;52203;51.998;5.140;2022-10-22T05:01:18;6.84;118.99
65559;DHT22;52203;51.998;5.140;2022-10-22T05:03:44;6.88;118.99
65559;DHT22;52203;51.998;5.140;2022-10-22T05:06:11;6.86;118.99
65559;DHT22;52203;51.998;5.140;2022-10-22T05:08:37;6.90;118.99
65559;DHT22;52203;51.998;5.140;2022-10-22T05:11:13;6.86;118.99
65559;DHT22;52203;51.998;5.140;2022-10-22T05:13:39;6.94;118.99
65559;DHT22;52203;51.998;5.140;2022-10-22T05:16:05;6.99;118.99
65559;DHT22;52203;51.998;5.140;2022-10-22T05:18:33;6.94;118.99
65559;DHT22;52203;51.998;5.140;2022-10-22T05:20:59;6.90;118.99
65559;DHT22;52203;51.998;5.140;2022-10-22T05:23:25;6.95;118.99
65559;DHT22;52203;51.998;5.140;2022-10-22T05:25:50;6.88;118.99
65559;DHT22;52203;51.998;5.140;2022-10-22T05:28:16;6.95;118.99
65559;DHT22;52203;51.998;5.140;2022-10-22T05:30:41;6.94;118.99
65559;DHT22;52203;51.998;5.140;2022-10-22T05:33:07;6.94;118.99
65559;DHT22;52203;51.998;5.140;2022-10-22T05:35:32;6.83;118.99
65559;DHT22;52203;51.998;5.140;2022-10-22T05:37:58;6.96;118.99
65559;DHT22;52203;51.998;5.140;2022-10-22T05:40:23;6.87;118.99
65559;DHT22;52203;51.998;5.140;2022-10-22T05:42:49;6.87;118.99
65559;DHT22;52203;51.998;5.140;2022-10-22T05:45:14;6.94;118.99
65559;DHT22;52203;51.998;5.140;2022-10-22T05:47:40;6.87;118.99
65559;DHT22;52203;51.998;5.140;2022-10-22T05:50:06;6.93;118.99
65559;DHT22;52203;51.998;5.140;2022-10-22T05:52:31;6.93;118.99
65559;DHT22;52203;51.998;5.140;2022-10-22T05:54:57;6.87;118.99
65559;DHT22;52203;51.998;5.140;2022-10-22T05:57:23;6.97;118.99
65559;DHT22;52203;51.998;5.140;2022-10-22T05:59:48;6.97;118.99
65559;DHT22;52203;51.998;5.140;2022-10-22T06:02:14;6.95;118.99
65559;DHT22;52203;51.998;5.140;2022-10-22T06:04:39;6.98;118.99
65559;DHT22;52203;51.998;5.140;2022-10-22T06:07:05;6.99;118.99
65559;DHT22;52203;51.998;5.140;2022-10-22T06:09:34;6.99;118.99
65559;DHT22;52203;51.998;5.140;2022-10-22T06:12:01;6.91;118.99
65559;DHT22;52203;51.998;5.140;2022-10-22T06:14:27;6.98;118.99
65559;DHT22;52203;51.998;5.140;2022-10-22T06:16:54;6.90;118.99
65559;DHT22;52203;51.998;5.140;2022-10-22T06:19:21;6.85;118.99
65559;DHT22;52203;51.998;5.140;2022-10-22T06:21:47;6.90;118.99
65559;DHT22;52203;51.998;5.140;2022-10-22T06:24:13;6.86;118.99
65559;DHT22;52203;51.998;5.140;2022-10-22T06:26:39;6.75;118.99
65559;DHT22;52203;51.998;5.140;2022-10-22T06:29:06;6.82;118.99
65559;DHT22;52203;51.998;5.140;2022-10-22T06:31:32;6.82;118.99
65559;DHT22;52203;51.998;5.140;2022-10-22T06:34:02;6.80;118.99
65559;DHT22;52203;51.998;5.140;2022-10-22T06:36:28;6.81;118.99
65559;DHT22;52203;51.998;5.140;2022-10-22T06:38:55;6.87;118.99
65559;DHT22;52203;51.998;5.140;2022-10-22T06:41:21;6.93;118.99
65559;DHT22;52203;51.998;5.140;2022-10-22T06:43:46;6.75;118.99
65559;DHT22;52203;51.998;5.140;2022-10-22T06:46:15;6.87;118.99
65559;DHT22;52203;51.998;5.140;2022-10-22T06:48:41;6.91;118.99
65559;DHT22;52203;51.998;5.140;2022-10-22T06:51:10;6.91;118.99
65559;DHT22;52203;51.998;5.140;2022-10-22T06:53:38;7.09;118.99
65559;DHT22;52203;51.998;5.140;2022-10-22T06:56:08;7.08;118.99
65559;DHT22;52203;51.998;5.140;2022-10-22T06:58:34;7.02;118.99
65559;DHT22;52203;51.998;5.140;2022-10-22T07:01:07;7.07;118.99
65559;DHT22;52203;51.998;5.140;2022-10-22T07:03:33;7.07;118.99
65559;DHT22;52203;51.998;5.140;2022-10-22T07:06:04;7.08;118.99
65559;DHT22;52203;51.998;5.140;2022-10-22T07:08:31;7.09;118.99
65559;DHT22;52203;51.998;5.140;2022-10-22T07:11:08;7.20;118.99
65559;DHT22;52203;51.998;5.140;2022-10-22T07:13:34;7.29;118.99
65559;DHT22;52203;51.998;5.140;2022-10-22T07:15:59;7.41;118.99
65559;DHT22;52203;51.998;5.140;2022-10-22T07:18:25;7.49;118.99
65559;DHT22;52203;51.998;5.140;2022-10-22T07:20:50;7.64;118.99
65559;DHT22;52203;51.998;5.140;2022-10-22T07:23:16;7.74;118.99
65559;DHT22;52203;51.998;5.140;2022-10-22T07:25:41;7.81;118.99
65559;DHT22;52203;51.998;5.140;2022-10-22T07:28:07;7.83;118.99
65559;DHT22;52203;51.998;5.140;2022-10-22T07:30:33;7.89;118.99
65559;DHT22;52203;51.998;5.140;2022-10-22T07:33:00;7.97;118.99
65559;DHT22;52203;51.998;5.140;2022-10-22T07:35:25;8.06;118.99
65559;DHT22;52203;51.998;5.140;2022-10-22T07:37:51;8.06;118.99
65559;DHT22;52203;51.998;5.140;2022-10-22T07:40:16;8.18;118.99
65559;DHT22;52203;51.998;5.140;2022-10-22T07:42:42;8.21;118.99
65559;DHT22;52203;51.998;5.140;2022-10-22T07:45:08;8.23;118.99
65559;DHT22;52203;51.998;5.140;2022-10-22T07:47:34;8.34;118.99
65559;DHT22;52203;51.998;5.140;2022-10-22T07:49:59;8.31;118.99
65559;DHT22;52203;51.998;5.140;2022-10-22T07:52:25;8.31;118.99
65559;DHT22;52203;51.998;5.140;2022-10-22T07:54:51;8.34;118.99
65559;DHT22;52203;51.998;5.140;2022-10-22T07:57:16;8.37;118.99
65559;DHT22;52203;51.998;5.140;2022-10-22T07:59:42;8.50;118.99
65559;DHT22;52203;51.998;5.140;2022-10-22T08:02:08;8.50;118.99
65559;DHT22;52203;51.998;5.140;2022-10-22T08:04:34;8.59;118.99
65559;DHT22;52203;51.998;5.140;2022-10-22T08:07:00;8.59;118.99
65559;DHT22;52203;51.998;5.140;2022-10-22T08:09:25;8.62;118.99
65559;DHT22;52203;51.998;5.140;2022-10-22T08:11:51;8.64;118.99
65559;DHT22;52203;51.998;5.140;2022-10-22T08:14:16;8.72;118.99
65559;DHT22;52203;51.998;5.140;2022-10-22T08:16:43;8.70;118.99
65559;DHT22;52203;51.998;5.140;2022-10-22T08:19:09;8.78;118.99
65559;DHT22;52203;51.998;5.140;2022-10-22T08:21:34;8.85;118.99
65559;DHT22;52203;51.998;5.140;2022-10-22T08:24:00;8.91;118.99
65559;DHT22;52203;51.998;5.140;2022-10-22T08:26:25;8.90;118.99
65559;DHT22;52203;51.998;5.140;2022-10-22T08:28:51;9.00;118.99
65559;DHT22;52203;51.998;5.140;2022-10-22T08:31:16;9.05;118.99
65559;DHT22;52203;51.998;5.140;2022-10-22T08:33:42;9.10;118.99
65559;DHT22;52203;51.998;5.140;2022-10-22T08:36:08;9.08;118.99
65559;DHT22;52203;51.998;5.140;2022-10-22T08:38:33;9.04;118.99
65559;DHT22;52203;51.998;5.140;2022-10-22T08:41:08;9.01;118.99
65559;DHT22;52203;51.998;5.140;2022-10-22T08:48:56;9.05;118.99
65559;DHT22;52203;51.998;5.140;2022-10-22T08:51:25;9.10;118.99
65559;DHT22;52203;51.998;5.140;2022-10-22T08:56:34;9.14;118.99
65559;DHT22;52203;51.998;5.140;2022-10-22T08:59:24;9.19;118.99
65559;DHT22;52203;51.998;5.140;2022-10-22T09:01:53;9.18;118.99
65559;DHT22;52203;51.998;5.140;2022-10-22T09:04:30;9.22;118.99
65559;DHT22;52203;51.998;5.140;2022-10-22T09:06:58;9.26;118.99
65559;DHT22;52203;51.998;5.140;2022-10-22T09:09:28;9.35;118.99
65559;DHT22;52203;51.998;5.140;2022-10-22T09:11:56;9.51;118.99
65559;DHT22;52203;51.998;5.140;2022-10-22T09:14:24;9.55;118.99
65559;DHT22;52203;51.998;5.140;2022-10-22T09:17:00;9.60;118.99
65559;DHT22;52203;51.998;5.140;2022-10-22T09:22:32;9.70;118.99
65559;DHT22;52203;51.998;5.140;2022-10-22T09:25:18;9.78;118.99
65559;DHT22;52203;51.998;5.140;2022-10-22T09:27:44;9.78;118.99
65559;DHT22;52203;51.998;5.140;2022-10-22T09:30:19;9.75;118.99
65559;DHT22;52203;51.998;5.140;2022-10-22T09:32:46;9.75;118.99
65559;DHT22;52203;51.998;5.140;2022-10-22T09:35:21;9.84;118.99
65559;DHT22;52203;51.998;5.140;2022-10-22T09:37:51;10.05;118.99
65559;DHT22;52203;51.998;5.140;2022-10-22T09:40:17;9.90;118.99
65559;DHT22;52203;51.998;5.140;2022-10-22T09:42:45;9.89;118.99
65559;DHT22;52203;51.998;5.140;2022-10-22T09:45:19;9.88;118.99
65559;DHT22;52203;51.998;5.140;2022-10-22T09:47:45;9.95;118.99
65559;DHT22;52203;51.998;5.140;2022-10-22T09:50:28;9.99;118.99
65559;DHT22;52203;51.998;5.140;2022-10-22T09:53:03;10.33;118.99
65559;DHT22;52203;51.998;5.140;2022-10-22T09:55:29;10.39;118.99
65559;DHT22;52203;51.998;5.140;2022-10-22T09:57:58;10.50;118.99
65559;DHT22;52203;51.998;5.140;2022-10-22T10:00:25;10.49;118.99
65559;DHT22;52203;51.998;5.140;2022-10-22T10:02:58;10.73;118.99
65559;DHT22;52203;51.998;5.140;2022-10-22T10:05:29;10.80;118.99
65559;DHT22;52203;51.998;5.140;2022-10-22T10:07:56;10.71;118.99
65559;DHT22;52203;51.998;5.140;2022-10-22T10:11:13;10.72;118.99
65559;DHT22;52203;51.998;5.140;2022-10-22T10:27:33;10.85;118.99
65559;DHT22;52203;51.998;5.140;2022-10-22T10:40:56;10.83;118.99
65559;DHT22;52203;51.998;5.140;2022-10-22T10:46:22;11.17;118.99
65559;DHT22;52203;51.998;5.140;2022-10-22T10:48:59;11.16;118.99
65559;DHT22;52203;51.998;5.140;2022-10-22T10:54:26;11.04;118.99
65559;DHT22;52203;51.998;5.140;2022-10-22T10:57:05;11.16;118.99
65559;DHT22;52203;51.998;5.140;2022-10-22T11:10:47;11.49;118.99
65559;DHT22;52203;51.998;5.140;2022-10-22T11:15:49;11.45;118.99
65559;DHT22;52203;51.998;5.140;2022-10-22T11:21:16;11.36;118.99
65559;DHT22;52203;51.998;5.140;2022-10-22T11:24:21;11.49;118.99
65559;DHT22;52203;51.998;5.140;2022-10-22T11:26:48;11.54;118.99
65559;DHT22;52203;51.998;5.140;2022-10-22T11:29:38;11.25;118.99
65559;DHT22;52203;51.998;5.140;2022-10-22T11:32:09;11.11;118.99
65559;DHT22;52203;51.998;5.140;2022-10-22T11:34:44;10.86;118.99
65559;DHT22;52203;51.998;5.140;2022-10-22T11:37:12;10.72;118.99
65559;DHT22;52203;51.998;5.140;2022-10-22T11:39:42;10.93;118.99
65559;DHT22;52203;51.998;5.140;2022-10-22T11:42:15;10.81;118.99
65559;DHT22;52203;51.998;5.140;2022-10-22T11:48:07;10.59;118.99
65559;DHT22;52203;51.998;5.140;2022-10-22T11:50:56;10.80;118.99
65559;DHT22;52203;51.998;5.140;2022-10-22T11:53:31;10.74;118.99
65559;DHT22;52203;51.998;5.140;2022-10-22T11:56:03;10.68;118.99
65559;DHT22;52203;51.998;5.140;2022-10-22T11:58:31;10.67;118.99
65559;DHT22;52203;51.998;5.140;2022-10-22T12:01:19;10.67;118.99
65559;DHT22;52203;51.998;5.140;2022-10-22T12:04:20;10.77;118.99
65559;DHT22;52203;51.998;5.140;2022-10-22T12:06:58;10.84;118.99
65559;DHT22;52203;51.998;5.140;2022-10-22T12:09:25;10.86;118.99
65559;DHT22;52203;51.998;5.140;2022-10-22T12:12:04;10.93;118.99
65559;DHT22;52203;51.998;5.140;2022-10-22T12:14:50;11.08;118.99
65559;DHT22;52203;51.998;5.140;2022-10-22T12:17:17;11.13;118.99
65559;DHT22;52203;51.998;5.140;2022-10-22T12:19:48;11.16;118.99
65559;DHT22;52203;51.998;5.140;2022-10-22T12:24:48;11.29;118.99
65559;DHT22;52203;51.998;5.140;2022-10-22T12:27:19;11.32;118.99
65559;DHT22;52203;51.998;5.140;2022-10-22T12:29:45;11.31;118.99
65559;DHT22;52203;51.998;5.140;2022-10-22T12:32:13;11.23;118.99
65559;DHT22;52203;51.998;5.140;2022-10-22T12:34:50;10.90;118.99
65559;DHT22;52203;51.998;5.140;2022-10-22T12:37:17;10.78;118.99
65559;DHT22;52203;51.998;5.140;2022-10-22T12:39:44;10.77;118.99
65559;DHT22;52203;51.998;5.140;2022-10-22T12:42:16;10.68;118.99
65559;DHT22;52203;51.998;5.140;2022-10-22T12:44:43;10.55;118.99
65559;DHT22;52203;51.998;5.140;2022-10-22T12:47:16;10.57;118.99
65559;DHT22;52203;51.998;5.140;2022-10-22T12:49:45;11.05;118.99
65559;DHT22;52203;51.998;5.140;2022-10-22T12:52:20;10.98;118.99
65559;DHT22;52203;51.998;5.140;2022-10-22T12:54:49;11.09;118.99
65559;DHT22;52203;51.998;5.140;2022-10-22T12:57:18;11.17;118.99
65559;DHT22;52203;51.998;5.140;2022-10-22T12:59:50;11.15;118.99
65559;DHT22;52203;51.998;5.140;2022-10-22T13:02:21;11.14;118.99
65559;DHT22;52203;51.998;5.140;2022-10-22T13:05:13;11.14;118.99
65559;DHT22;52203;51.998;5.140;2022-10-22T13:07:51;11.26;118.99
65559;DHT22;52203;51.998;5.140;2022-10-22T13:12:49;11.08;118.99
65559;DHT22;52203;51.998;5.140;2022-10-22T13:18:20;11.26;118.99
65559;DHT22;52203;51.998;5.140;2022-10-22T13:21:01;11.42;118.99
65559;DHT22;52203;51.998;5.140;2022-10-22T13:23:30;11.31;118.99
65559;DHT22;52203;51.998;5.140;2022-10-22T13:25:57;11.22;118.99
65559;DHT22;52203;51.998;5.140;2022-10-22T13:28:24;11.36;118.99
65559;DHT22;52203;51.998;5.140;2022-10-22T13:31:07;11.28;118.99
65559;DHT22;52203;51.998;5.140;2022-10-22T13:33:36;11.16;118.99
65559;DHT22;52203;51.998;5.140;2022-10-22T13:36:03;11.01;118.99
65559;DHT22;52203;51.998;5.140;2022-10-22T13:38:29;10.87;118.99
65559;DHT22;52203;51.998;5.140;2022-10-22T13:40:55;10.77;118.99
65559;DHT22;52203;51.998;5.140;2022-10-22T13:43:21;10.68;118.99
65559;DHT22;52203;51.998;5.140;2022-10-22T13:45:48;10.69;118.99
65559;DHT22;52203;51.998;5.140;2022-10-22T13:48:18;10.82;118.99
65559;DHT22;52203;51.998;5.140;2022-10-22T13:50:49;10.99;118.99
65559;DHT22;52203;51.998;5.140;2022-10-22T13:53:19;10.97;118.99
65559;DHT22;52203;51.998;5.140;2022-10-22T13:55:46;11.12;118.99
65559;DHT22;52203;51.998;5.140;2022-10-22T13:58:22;11.23;118.99
65559;DHT22;52203;51.998;5.140;2022-10-22T14:00:55;11.23;118.99
65559;DHT22;52203;51.998;5.140;2022-10-22T14:03:25;11.44;118.99
65559;DHT22;52203;51.998;5.140;2022-10-22T14:05:51;11.56;118.99
65559;DHT22;52203;51.998;5.140;2022-10-22T14:08:21;11.46;118.99
65559;DHT22;52203;51.998;5.140;2022-10-22T14:10:47;11.44;118.99
65559;DHT22;52203;51.998;5.140;2022-10-22T14:13:14;11.29;118.99
65559;DHT22;52203;51.998;5.140;2022-10-22T14:15:40;11.12;118.99
65559;DHT22;52203;51.998;5.140;2022-10-22T14:18:07;11.12;118.99
65559;DHT22;52203;51.998;5.140;2022-10-22T14:20:37;11.18;118.99
65559;DHT22;52203;51.998;5.140;2022-10-22T14:23:12;11.19;118.99
65559;DHT22;52203;51.998;5.140;2022-10-22T14:25:39;11.13;118.99
65559;DHT22;52203;51.998;5.140;2022-10-22T14:28:04;11.03;118.99
65559;DHT22;52203;51.998;5.140;2022-10-22T14:30:30;10.94;118.99
65559;DHT22;52203;51.998;5.140;2022-10-22T14:32:57;10.96;118.99
65559;DHT22;52203;51.998;5.140;2022-10-22T14:35:23;10.98;118.99
65559;DHT22;52203;51.998;5.140;2022-10-22T14:37:49;10.98;118.99
65559;DHT22;52203;51.998;5.140;2022-10-22T14:40:18;10.97;118.99
65559;DHT22;52203;51.998;5.140;2022-10-22T14:42:46;10.93;118.99
65559;DHT22;52203;51.998;5.140;2022-10-22T14:45:16;10.87;118.99
65559;DHT22;52203;51.998;5.140;2022-10-22T14:47:42;10.83;118.99
65559;DHT22;52203;51.998;5.140;2022-10-22T14:50:09;11.01;118.99
65559;DHT22;52203;51.998;5.140;2022-10-22T14:52:35;11.05;118.99
65559;DHT22;52203;51.998;5.140;2022-10-22T14:55:01;11.14;118.99
65559;DHT22;52203;51.998;5.140;2022-10-22T14:57:26;11.14;118.99
65559;DHT22;52203;51.998;5.140;2022-10-22T14:59:52;11.13;118.99
65559;DHT22;52203;51.998;5.140;2022-10-22T15:02:20;11.07;118.99
65559;DHT22;52203;51.998;5.140;2022-10-22T15:04:47;10.97;118.99
65559;DHT22;52203;51.998;5.140;2022-10-22T15:07:12;10.97;118.99
65559;DHT22;52203;51.998;5.140;2022-10-22T15:09:38;10.89;118.99
65559;DHT22;52203;51.998;5.140;2022-10-22T15:12:04;10.83;118.99
65559;DHT22;52203;51.998;5.140;2022-10-22T15:14:29;10.78;118.99
65559;DHT22;52203;51.998;5.140;2022-10-22T15:16:55;10.74;118.99
65559;DHT22;52203;51.998;5.140;2022-10-22T15:19:21;10.73;118.99
65559;DHT22;52203;51.998;5.140;2022-10-22T15:21:46;10.71;118.99
65559;DHT22;52203;51.998;5.140;2022-10-22T15:24:12;10.65;118.99
65559;DHT22;52203;51.998;5.140;2022-10-22T15:26:37;10.56;118.99
65559;DHT22;52203;51.998;5.140;2022-10-22T15:29:03;10.49;118.99
65559;DHT22;52203;51.998;5.140;2022-10-22T15:31:53;10.41;118.99
65559;DHT22;52203;51.998;5.140;2022-10-22T15:34:31;10.30;118.99
65559;DHT22;52203;51.998;5.140;2022-10-22T15:37:00;10.28;118.99
65559;DHT22;52203;51.998;5.140;2022-10-22T15:39:26;10.20;118.99
65559;DHT22;52203;51.998;5.140;2022-10-22T15:41:53;10.15;118.99
65559;DHT22;52203;51.998;5.140;2022-10-22T15:44:22;10.06;118.99
65559;DHT22;52203;51.998;5.140;2022-10-22T15:46:49;9.94;118.99
65559;DHT22;52203;51.998;5.140;2022-10-22T15:49:16;9.81;118.99
65559;DHT22;52203;51.998;5.140;2022-10-22T15:51:42;9.75;118.99
65559;DHT22;52203;51.998;5.140;2022-10-22T15:54:14;9.65;118.99
65559;DHT22;52203;51.998;5.140;2022-10-22T15:56:40;9.59;118.99
65559;DHT22;52203;51.998;5.140;2022-10-22T15:59:06;9.51;118.99
65559;DHT22;52203;51.998;5.140;2022-10-22T16:01:33;9.41;118.99
65559;DHT22;52203;51.998;5.140;2022-10-22T16:03:59;9.32;118.99
65559;DHT22;52203;51.998;5.140;2022-10-22T16:06:49;9.22;118.99
65559;DHT22;52203;51.998;5.140;2022-10-22T16:09:21;9.22;118.99
65559;DHT22;52203;51.998;5.140;2022-10-22T16:11:48;8.97;118.99
65559;DHT22;52203;51.998;5.140;2022-10-22T16:14:15;9.04;118.99
65559;DHT22;52203;51.998;5.140;2022-10-22T16:16:43;8.92;118.99
65559;DHT22;52203;51.998;5.140;2022-10-22T16:19:13;8.65;118.99
65559;DHT22;52203;51.998;5.140;2022-10-22T16:21:39;8.51;118.99
65559;DHT22;52203;51.998;5.140;2022-10-22T16:24:06;8.39;118.99
65559;DHT22;52203;51.998;5.140;2022-10-22T16:26:32;8.28;118.99
65559;DHT22;52203;51.998;5.140;2022-10-22T16:28:58;8.17;118.99
65559;DHT22;52203;51.998;5.140;2022-10-22T16:31:23;8.08;118.99
65559;DHT22;52203;51.998;5.140;2022-10-22T16:33:49;8.04;118.99
65559;DHT22;52203;51.998;5.140;2022-10-22T16:36:17;7.89;118.99
65559;DHT22;52203;51.998;5.140;2022-10-22T16:38:44;7.76;118.99
65559;DHT22;52203;51.998;5.140;2022-10-22T16:41:17;7.81;118.99
65559;DHT22;52203;51.998;5.140;2022-10-22T16:43:44;7.64;118.99
65559;DHT22;52203;51.998;5.140;2022-10-22T16:46:14;7.68;118.99
65559;DHT22;52203;51.998;5.140;2022-10-22T16:48:44;7.57;118.99
65559;DHT22;52203;51.998;5.140;2022-10-22T16:51:12;7.41;118.99
65559;DHT22;52203;51.998;5.140;2022-10-22T16:53:38;7.38;118.99
65559;DHT22;52203;51.998;5.140;2022-10-22T16:56:07;7.58;118.99
65559;DHT22;52203;51.998;5.140;2022-10-22T16:58:33;7.39;118.99
65559;DHT22;52203;51.998;5.140;2022-10-22T17:00:59;7.46;118.99
65559;DHT22;52203;51.998;5.140;2022-10-22T17:03:24;7.40;118.99
65559;DHT22;52203;51.998;5.140;2022-10-22T17:05:50;7.41;118.99
65559;DHT22;52203;51.998;5.140;2022-10-22T17:08:15;7.28;118.99
65559;DHT22;52203;51.998;5.140;2022-10-22T17:10:41;7.25;118.99
65559;DHT22;52203;51.998;5.140;2022-10-22T17:13:07;7.27;118.99
65559;DHT22;52203;51.998;5.140;2022-10-22T17:15:32;7.26;118.99